Souda — SVBH5 — position and weather

sailwx.info

Track history (hours):
 
Tides and Currents Weather Stations Pressure Air Temp Water Temp Dewpoint Dewpoint Depression Visibility Wind Speed Wind Dir Waves Ship Positions

Souda

Last reported at 2014-Nov-21 17:22 UTC. Time now 2014-Nov-22 10:33 UTC.
Position N 36°47' E 023°59'.

Length 88 m; draft 6.4 m.

Type: Tanker. MMSI: 241109000.

Date/timePositionNaut miles runAvg speedWind from/ knotsBaromVisibWave heightAir tempDewpointWater temp
2014-Nov-21 17:22N 36°47' E 023°59'51 8.6
2014-Nov-21 11:25N 37°37' E 023°43'7 8.7
2014-Nov-21 10:34N 37°44' E 023°40'7 7.4
2014-Nov-21 09:34N 37°50' E 023°33'9 8.6
2014-Nov-21 08:34N 37°51' E 023°23'9 8.5
2014-Nov-21 07:31N 37°53' E 023°12'6 0.3
2014-Nov-20 15:33N 37°55' E 023°05'1 0.2
2014-Nov-20 11:24N 37°54' E 023°06'0 0.0
2014-Nov-20 10:28N 37°55' E 023°06'5 5.1
2014-Nov-20 09:30N 37°53' E 023°12'8 8.3
2014-Nov-20 08:33N 37°51' E 023°21'8 8.3
2014-Nov-20 07:33N 37°50' E 023°32'8 1.3
2014-Nov-20 01:15N 37°57' E 023°35'0 0.0
2014-Nov-20 00:33N 37°57' E 023°35'0 0.0
2014-Nov-19 23:33N 37°57' E 023°35'0 0.0
2014-Nov-19 22:33N 37°57' E 023°35'0 0.0
2014-Nov-19 21:33N 37°57' E 023°35'0 0.0
2014-Nov-19 20:33N 37°57' E 023°35'0 0.0
2014-Nov-19 19:30N 37°57' E 023°35'0 0.0
2014-Nov-19 18:33N 37°57' E 023°35'0 0.0
2014-Nov-19 17:33N 37°57' E 023°35'0 0.0
2014-Nov-19 16:33N 37°57' E 023°35'0 0.0
2014-Nov-19 15:33N 37°57' E 023°35'0 0.0
2014-Nov-19 14:33N 37°57' E 023°35'0 0.0
2014-Nov-19 13:33N 37°57' E 023°35'0 0.0
2014-Nov-19 12:33N 37°57' E 023°35'0 0.0
2014-Nov-19 11:33N 37°57' E 023°35'0 0.0
2014-Nov-19 10:33N 37°57' E 023°35'0 0.0
2014-Nov-19 09:33N 37°57' E 023°35'4 3.5
2014-Nov-19 08:34N 37°54' E 023°35'7 7.0
2014-Nov-19 07:34N 37°50' E 023°28'8 8.3
2014-Nov-19 06:34N 37°52' E 023°17'10 8.0
2014-Nov-19 05:20N 37°55' E 023°06'0 0.0
2014-Nov-18 15:33N 37°55' E 023°05'7 6.5
2014-Nov-18 14:25N 37°53' E 023°14'8 8.9
2014-Nov-18 13:28N 37°50' E 023°24'8 8.8
2014-Nov-18 12:33N 37°50' E 023°35'8 8.0
2014-Nov-18 11:33N 37°45' E 023°42'24 7.7
2014-Nov-18 08:29N 37°39' E 024°11'21 9.1
2014-Nov-18 06:11N 37°53' E 024°32'  
2014-Nov-14 12:33N 37°51' E 024°29'10 7.8
2014-Nov-14 11:13N 37°44' E 024°19'6 7.7
2014-Nov-14 10:24N 37°40' E 024°13'21 7.4
2014-Nov-14 07:33N 37°39' E 023°46'8 7.6
2014-Nov-14 06:33N 37°45' E 023°40'8 7.7
2014-Nov-14 05:33N 37°50' E 023°32'22 1.3
2014-Nov-13 12:23N 37°55' E 023°05'6 0.5
2014-Nov-13 00:06N 37°53' E 023°12'5 9.2
2014-Nov-12 23:33N 37°51' E 023°18'9 9.1
2014-Nov-12 22:33N 37°50' E 023°30'9 8.7
2014-Nov-12 21:33N 37°48' E 023°40'10 9.0
2014-Nov-12 20:29N 37°39' E 023°45'21 9.3
2014-Nov-12 18:13N 37°19' E 023°50'24 8.9
2014-Nov-12 15:32N 36°55' E 023°56'8 8.5
2014-Nov-12 14:32N 36°47' E 023°58'9 9.0
2014-Nov-12 13:33N 36°38' E 023°60'9 9.0
2014-Nov-12 12:33N 36°29' E 024°02'9 9.4
2014-Nov-12 11:33N 36°20' E 024°04'9 9.5
2014-Nov-12 10:33N 36°11' E 024°06'10 9.8
2014-Nov-12 09:31N 36°00' E 024°09'  
Track history (hours):
 
Tides and Currents Weather Stations Pressure Air Temp Water Temp Dewpoint Dewpoint Depression Visibility Wind Speed Wind Dir Waves Ship Positions

Souda

Last reported at 2014-Nov-21 17:22 UTC. Time now 2014-Nov-22 10:33 UTC.
Position N 36°47' E 023°59'.

Length 88 m; draft 6.4 m.

Type: Tanker. MMSI: 241109000.

Date/timePositionNaut miles runAvg speedWind from/ knotsBaromVisibWave heightAir tempDewpointWater temp
2014-Nov-21 17:22N 36°47' E 023°59'51 8.6
2014-Nov-21 11:25N 37°37' E 023°43'7 8.7
2014-Nov-21 10:34N 37°44' E 023°40'7 7.4
2014-Nov-21 09:34N 37°50' E 023°33'9 8.6
2014-Nov-21 08:34N 37°51' E 023°23'9 8.5
2014-Nov-21 07:31N 37°53' E 023°12'6 0.3
2014-Nov-20 15:33N 37°55' E 023°05'1 0.2
2014-Nov-20 11:24N 37°54' E 023°06'0 0.0
2014-Nov-20 10:28N 37°55' E 023°06'5 5.1
2014-Nov-20 09:30N 37°53' E 023°12'8 8.3
2014-Nov-20 08:33N 37°51' E 023°21'8 8.3
2014-Nov-20 07:33N 37°50' E 023°32'8 1.3
2014-Nov-20 01:15N 37°57' E 023°35'0 0.0
2014-Nov-20 00:33N 37°57' E 023°35'0 0.0
2014-Nov-19 23:33N 37°57' E 023°35'0 0.0
2014-Nov-19 22:33N 37°57' E 023°35'0 0.0
2014-Nov-19 21:33N 37°57' E 023°35'0 0.0
2014-Nov-19 20:33N 37°57' E 023°35'0 0.0
2014-Nov-19 19:30N 37°57' E 023°35'0 0.0
2014-Nov-19 18:33N 37°57' E 023°35'0 0.0
2014-Nov-19 17:33N 37°57' E 023°35'0 0.0
2014-Nov-19 16:33N 37°57' E 023°35'0 0.0
2014-Nov-19 15:33N 37°57' E 023°35'0 0.0
2014-Nov-19 14:33N 37°57' E 023°35'0 0.0
2014-Nov-19 13:33N 37°57' E 023°35'0 0.0
2014-Nov-19 12:33N 37°57' E 023°35'0 0.0
2014-Nov-19 11:33N 37°57' E 023°35'0 0.0
2014-Nov-19 10:33N 37°57' E 023°35'0 0.0
2014-Nov-19 09:33N 37°57' E 023°35'4 3.5
2014-Nov-19 08:34N 37°54' E 023°35'7 7.0
2014-Nov-19 07:34N 37°50' E 023°28'8 8.3
2014-Nov-19 06:34N 37°52' E 023°17'10 8.0
2014-Nov-19 05:20N 37°55' E 023°06'0 0.0
2014-Nov-18 15:33N 37°55' E 023°05'7 6.5
2014-Nov-18 14:25N 37°53' E 023°14'8 8.9
2014-Nov-18 13:28N 37°50' E 023°24'8 8.8
2014-Nov-18 12:33N 37°50' E 023°35'8 8.0
2014-Nov-18 11:33N 37°45' E 023°42'24 7.7
2014-Nov-18 08:29N 37°39' E 024°11'21 9.1
2014-Nov-18 06:11N 37°53' E 024°32'  
2014-Nov-14 12:33N 37°51' E 024°29'10 7.8
2014-Nov-14 11:13N 37°44' E 024°19'6 7.7
2014-Nov-14 10:24N 37°40' E 024°13'21 7.4
2014-Nov-14 07:33N 37°39' E 023°46'8 7.6
2014-Nov-14 06:33N 37°45' E 023°40'8 7.7
2014-Nov-14 05:33N 37°50' E 023°32'22 1.3
2014-Nov-13 12:23N 37°55' E 023°05'6 0.5
2014-Nov-13 00:06N 37°53' E 023°12'5 9.2
2014-Nov-12 23:33N 37°51' E 023°18'9 9.1
2014-Nov-12 22:33N 37°50' E 023°30'9 8.7
2014-Nov-12 21:33N 37°48' E 023°40'10 9.0
2014-Nov-12 20:29N 37°39' E 023°45'21 9.3
2014-Nov-12 18:13N 37°19' E 023°50'24 8.9
2014-Nov-12 15:32N 36°55' E 023°56'8 8.5
2014-Nov-12 14:32N 36°47' E 023°58'9 9.0
2014-Nov-12 13:33N 36°38' E 023°60'9 9.0
2014-Nov-12 12:33N 36°29' E 024°02'9 9.4
2014-Nov-12 11:33N 36°20' E 024°04'9 9.5
2014-Nov-12 10:33N 36°11' E 024°06'10 9.8
2014-Nov-12 09:31N 36°00' E 024°09'  

Dump ship's entire track history